Terminal Aerodrome Forecast
Issued by NWS Knoxville/Tri Cities, TN

Home | Current Version | Previous Version | Text Only | Print | Product List | Glossary On
Versions: 1 2 3 4 5 6 7 8 9 10 11 12 13 14 15 16 17 18 19 20 21 22 23 24 25 26 27 28 29 30 31 32 33 34 35 36 37 38 39 40 41 42
000
FTUS44 KMRX 041133
TAFTRI
TAF
KTRI 041133Z 0412/0512 22007KT P6SM SCT027 OVC045
      TEMPO 0412/0414 4SM -SHRA BR BKN025 OVC045
     FM041400 24006KT P6SM VCSH BKN015
     FM041900 25010KT P6SM BKN020
     FM042100 25007KT P6SM SCT020 BKN060
     FM050000 25003KT P6SM BKN040
     FM050600 00000KT 3SM BR OVC015
     FM051000 00000KT 2SM -RA BR OVC007=

USA.gov is the U.S. government's official web portal to all federal, state and local government web resources and services.